Terminal Aerodrome Forecast
Issued by NWS

Home | Current Version | Previous Version | Graphics & Text | Print | Product List | Glossary On
Versions: 1 2 3 4 5 6 7 8 9 10 11 12 13 14 15 16 17 18 19 20 21 22 23 24 25 26 27 28 29 30
669
FTUS45 KGGW 271726
TAFOLF
TAF
KOLF 271726Z 2718/2818 25005KT P6SM SKC
     FM280500 33004KT P6SM SKC
     FM280900 01008KT P6SM SKC
     FM281500 04009KT P6SM FEW040=

USA.gov is the U.S. government's official web portal to all federal, state and local government web resources and services.